Time;durP1;ratioP1;P1;durP2;ratioP2;P2;SDS_P1;SDS_P2;PMS_P1;PMS_P2;Temp;Humidity;BMP_temperature;BMP_pressure;BME280_temperature;BME280_humidity;BME280_pressure;Samples;Min_cycle;Max_cycle;Signal;HPM_P1;HPM_P2
2021/08/16 00:00:43;;;;;;;;;;;19.90;99.90;;;;;;5004030;28;19967;-72
2021/08/16 00:03:09;;;;;;;;;;;19.90;99.90;;;;;;5003871;28;20000;-71
2021/08/16 00:05:36;;;;;;;;;;;19.90;99.90;;;;;;5004716;28;19966;-69
2021/08/16 00:08:05;;;;;;;;;;;19.90;99.90;;;;;;5005358;28;20028;-71
2021/08/16 00:10:32;;;;;;;;;;;20.00;99.90;;;;;;5005162;28;19966;-68
2021/08/16 00:12:59;;;;;;;;;;;20.00;99.90;;;;;;5006353;28;19973;-69
2021/08/16 00:15:27;;;;;;;;;;;20.00;99.90;;;;;;5005396;28;20063;-67
2021/08/16 00:17:53;;;;;;;;;;;20.00;99.90;;;;;;5004766;28;20316;-69
2021/08/16 00:20:20;;;;;;;;;;;20.00;99.90;;;;;;5006755;28;19989;-70
2021/08/16 00:22:47;;;;;;;;;;;20.00;99.90;;;;;;5008383;28;19963;-69
2021/08/16 00:25:13;;;;;;;;;;;20.00;99.90;;;;;;5007924;28;20005;-67
2021/08/16 00:27:40;;;;;;;;;;;20.00;99.90;;;;;;5003006;28;19966;-69
2021/08/16 00:30:07;;;;;;;;;;;20.00;99.90;;;;;;5008140;28;20434;-67
2021/08/16 00:32:35;;;;;;;;;;;20.00;99.90;;;;;;5013149;28;19963;-69
2021/08/16 00:35:02;;;;;;;;;;;20.00;99.90;;;;;;5010632;28;20009;-68
2021/08/16 00:37:28;;;;;;;;;;;20.00;99.90;;;;;;5009246;28;19964;-68
2021/08/16 00:39:55;;;;;;;;;;;20.00;99.90;;;;;;5009016;28;19963;-69
2021/08/16 00:42:22;;;;;;;;;;;20.00;99.90;;;;;;5008966;28;20041;-69
2021/08/16 00:44:48;;;;;;;;;;;20.00;99.90;;;;;;5009218;28;20003;-68
2021/08/16 00:47:15;;;;;;;;;;;20.00;99.90;;;;;;5006836;28;19963;-70
2021/08/16 00:49:43;;;;;;;;;;;20.00;99.90;;;;;;5009863;28;20010;-70
2021/08/16 00:52:11;;;;;;;;;;;20.00;99.90;;;;;;5005502;28;19968;-72
2021/08/16 00:54:38;;;;;;;;;;;20.00;99.90;;;;;;5007358;28;19967;-71
2021/08/16 00:57:07;;;;;;;;;;;20.00;99.90;;;;;;5010438;28;20077;-69
2021/08/16 00:59:33;;;;;;;;;;;20.00;99.90;;;;;;5005439;28;19964;-69
2021/08/16 01:02:00;;;;;;;;;;;20.00;99.90;;;;;;5008739;28;20291;-69
2021/08/16 01:04:28;;;;;;;;;;;20.00;99.90;;;;;;5004758;28;20362;-70
2021/08/16 01:06:56;;;;;;;;;;;20.00;99.90;;;;;;5007166;28;20513;-69
2021/08/16 01:09:23;;;;;;;;;;;20.00;99.90;;;;;;5009217;28;20045;-68
2021/08/16 01:11:50;;;;;;;;;;;20.00;99.90;;;;;;5002462;28;20003;-69
2021/08/16 01:14:17;;;;;;;;;;;19.90;99.90;;;;;;5008964;28;19999;-69
2021/08/16 01:16:43;;;;;;;;;;;19.90;99.90;;;;;;5006380;28;20498;-68
2021/08/16 01:19:10;;;;;;;;;;;19.90;99.90;;;;;;5004887;28;20006;-67
2021/08/16 01:21:37;;;;;;;;;;;19.90;99.90;;;;;;5003708;28;20312;-66
2021/08/16 01:24:08;;;;;;;;;;;19.90;99.90;;;;;;5009039;28;19968;-69
2021/08/16 01:26:36;;;;;;;;;;;19.80;99.90;;;;;;5006695;28;19999;-70
2021/08/16 01:29:03;;;;;;;;;;;19.80;99.90;;;;;;5007309;28;20041;-70
2021/08/16 01:31:30;;;;;;;;;;;19.80;99.90;;;;;;5005327;28;19963;-70
2021/08/16 01:33:56;;;;;;;;;;;19.80;99.90;;;;;;5009254;28;20424;-67
2021/08/16 01:36:23;;;;;;;;;;;19.90;99.90;;;;;;5007795;28;19963;-68
2021/08/16 01:38:49;;;;;;;;;;;19.80;99.90;;;;;;5008119;28;19998;-73
2021/08/16 01:41:16;;;;;;;;;;;19.80;99.90;;;;;;5005891;28;20018;-73
2021/08/16 01:43:44;;;;;;;;;;;19.80;99.90;;;;;;5006214;28;19967;-68
2021/08/16 01:46:11;;;;;;;;;;;19.80;99.90;;;;;;5008637;28;19991;-70
2021/08/16 01:48:37;;;;;;;;;;;19.80;99.90;;;;;;5007015;28;20318;-71
2021/08/16 01:51:04;;;;;;;;;;;19.80;99.90;;;;;;5011338;28;20005;-68
2021/08/16 01:53:31;;;;;;;;;;;19.80;99.90;;;;;;5008701;28;20377;-69
2021/08/16 01:55:57;;;;;;;;;;;19.80;99.90;;;;;;5011878;28;20003;-69
2021/08/16 01:58:24;;;;;;;;;;;19.90;99.90;;;;;;5008791;28;20042;-68
2021/08/16 02:00:52;;;;;;;;;;;19.80;99.90;;;;;;5007571;28;20022;-71
2021/08/16 02:03:18;;;;;;;;;;;19.90;99.90;;;;;;5007304;28;20038;-72
2021/08/16 02:05:45;;;;;;;;;;;19.90;99.90;;;;;;5006163;28;19995;-68
2021/08/16 02:08:12;;;;;;;;;;;19.90;99.90;;;;;;5006930;28;19967;-67
2021/08/16 02:10:38;;;;;;;;;;;19.90;99.90;;;;;;5009313;28;20066;-67
2021/08/16 02:13:05;;;;;;;;;;;19.90;99.90;;;;;;5008862;28;20430;-68
2021/08/16 02:15:32;;;;;;;;;;;19.90;99.90;;;;;;5006731;28;19963;-68
2021/08/16 02:18:00;;;;;;;;;;;19.90;99.90;;;;;;5007122;28;20337;-70
2021/08/16 02:20:26;;;;;;;;;;;19.90;99.90;;;;;;5006559;28;20049;-69
2021/08/16 02:22:53;;;;;;;;;;;19.90;99.90;;;;;;5006147;28;19963;-71
2021/08/16 02:25:20;;;;;;;;;;;19.90;99.90;;;;;;5006584;28;19964;-69
2021/08/16 02:27:47;;;;;;;;;;;19.90;99.90;;;;;;5008306;28;19960;-72
2021/08/16 02:30:14;;;;;;;;;;;19.90;99.90;;;;;;5005695;28;20045;-72
2021/08/16 02:32:41;;;;;;;;;;;19.90;99.90;;;;;;5005062;28;20420;-69
2021/08/16 02:35:10;;;;;;;;;;;19.90;99.90;;;;;;5006991;28;20007;-70
2021/08/16 02:37:36;;;;;;;;;;;19.90;99.90;;;;;;5005865;28;19968;-69
2021/08/16 02:40:03;;;;;;;;;;;19.90;99.90;;;;;;5007325;28;20046;-66
2021/08/16 02:42:30;;;;;;;;;;;19.90;99.90;;;;;;5006351;28;20055;-71
2021/08/16 02:44:56;;;;;;;;;;;19.90;99.90;;;;;;5004848;28;20506;-72
2021/08/16 02:47:23;;;;;;;;;;;19.80;99.90;;;;;;5002967;28;20748;-70
2021/08/16 02:49:50;;;;;;;;;;;19.80;99.90;;;;;;5006662;28;19994;-70
2021/08/16 02:52:18;;;;;;;;;;;19.80;99.90;;;;;;5009505;28;19960;-70
2021/08/16 02:54:45;;;;;;;;;;;19.80;99.90;;;;;;5008917;28;20011;-67
2021/08/16 02:57:12;;;;;;;;;;;19.80;99.90;;;;;;5005318;28;19987;-70
2021/08/16 02:59:39;;;;;;;;;;;19.80;99.90;;;;;;5004696;28;20444;-71
2021/08/16 03:02:06;;;;;;;;;;;19.80;99.90;;;;;;5006169;28;19964;-72
2021/08/16 03:04:32;;;;;;;;;;;19.80;99.90;;;;;;5005528;28;19963;-73
2021/08/16 03:06:59;;;;;;;;;;;19.80;99.90;;;;;;5006546;28;20802;-69
2021/08/16 03:09:28;;;;;;;;;;;19.80;99.70;;;;;;5007373;28;20021;-67
2021/08/16 03:11:54;;;;;;;;;;;19.80;99.60;;;;;;5006722;28;19963;-67
2021/08/16 03:14:21;;;;;;;;;;;19.80;99.50;;;;;;5008411;28;20010;-71
2021/08/16 03:16:48;;;;;;;;;;;19.80;99.30;;;;;;5007976;28;20062;-67
2021/08/16 03:19:14;;;;;;;;;;;19.80;99.30;;;;;;5006950;28;20366;-67
2021/08/16 03:21:41;;;;;;;;;;;19.80;99.20;;;;;;5007082;28;19963;-71
2021/08/16 03:24:08;;;;;;;;;;;19.70;99.20;;;;;;5004541;28;19968;-67
2021/08/16 03:26:36;;;;;;;;;;;19.70;99.20;;;;;;5000951;28;20348;-69
2021/08/16 03:29:02;;;;;;;;;;;19.70;99.20;;;;;;5009494;28;19994;-71
2021/08/16 03:31:29;;;;;;;;;;;19.60;99.30;;;;;;5004329;28;20086;-70
2021/08/16 03:33:56;;;;;;;;;;;19.60;99.40;;;;;;5006511;28;20021;-69
2021/08/16 03:36:22;;;;;;;;;;;19.60;99.50;;;;;;5006870;28;20374;-68
2021/08/16 03:38:49;;;;;;;;;;;19.60;99.70;;;;;;5005656;28;20034;-69
2021/08/16 03:41:15;;;;;;;;;;;19.60;99.80;;;;;;5004435;28;20069;-69
2021/08/16 03:43:43;;;;;;;;;;;19.60;99.90;;;;;;5004113;28;20381;-67
2021/08/16 03:46:11;;;;;;;;;;;19.60;99.90;;;;;;5008562;28;19973;-68
2021/08/16 03:48:37;;;;;;;;;;;19.60;99.90;;;;;;5012331;28;19962;-69
2021/08/16 03:51:04;;;;;;;;;;;19.50;99.90;;;;;;5009598;28;20038;-72
2021/08/16 03:53:31;;;;;;;;;;;19.50;99.90;;;;;;5007172;28;19998;-69
2021/08/16 03:55:57;;;;;;;;;;;19.50;99.90;;;;;;5006308;28;20013;-69
2021/08/16 03:58:24;;;;;;;12.77;2.58;;;19.50;99.90;;;;;;5004128;28;20541;-68
2021/08/16 04:00:52;;;;;;;7.47;2.10;;;19.50;99.90;;;;;;5007333;28;20685;-69
2021/08/16 04:03:19;;;;;;;11.35;2.17;;;19.40;99.90;;;;;;4999950;28;20615;-69
2021/08/16 04:05:46;;;;;;;16.45;3.15;;;19.20;99.90;;;;;;5007785;28;20196;-68
2021/08/16 04:08:13;;;;;;;13.38;2.65;;;19.10;99.90;;;;;;5008794;28;20213;-67
2021/08/16 04:10:39;;;;;;;13.68;3.17;;;18.90;99.90;;;;;;5010287;28;20753;-70
2021/08/16 04:13:06;;;;;;;11.35;2.83;;;18.80;99.90;;;;;;5012835;28;20239;-71
2021/08/16 04:15:33;;;;;;;17.30;3.28;;;18.70;99.90;;;;;;5013784;28;20370;-68
2021/08/16 04:18:01;;;;;;;7.85;3.00;;;18.60;99.90;;;;;;5009265;28;20211;-66
2021/08/16 04:20:28;;;;;;;15.88;3.35;;;18.60;99.90;;;;;;5008641;28;20327;-69
2021/08/16 04:22:55;;;;;;;15.27;3.47;;;18.50;99.90;;;;;;5008934;28;20248;-66
2021/08/16 04:25:22;;;;;;;15.75;3.55;;;18.50;99.90;;;;;;5009209;28;20297;-71
2021/08/16 04:27:49;;;;;;;14.65;3.70;;;18.40;99.90;;;;;;5011610;28;20203;-69
2021/08/16 04:30:17;;;;;;;9.63;3.75;;;18.40;99.90;;;;;;5009728;28;20307;-68
2021/08/16 04:32:44;;;;;;;13.52;3.40;;;18.40;99.90;;;;;;5010636;28;20244;-68
2021/08/16 04:35:12;;;;;;;;;;;18.40;99.90;;;;;;5006705;28;20019;-65
2021/08/16 04:37:40;;;;;;;8.10;2.88;;;18.30;99.90;;;;;;5002890;28;20061;-68
2021/08/16 04:40:09;;;;;;;12.70;3.83;;;18.30;99.90;;;;;;5011827;28;20267;-67
2021/08/16 04:42:36;;;;;;;9.57;3.20;;;18.30;99.90;;;;;;5005479;28;20204;-67
2021/08/16 04:45:03;;;;;;;9.73;3.58;;;18.30;99.90;;;;;;5006399;28;20271;-71
2021/08/16 04:47:30;;;;;;;12.63;3.58;;;18.30;99.90;;;;;;5014684;28;20262;-72
2021/08/16 04:49:57;;;;;;;;;;;18.30;99.90;;;;;;5007017;28;20510;-66
2021/08/16 04:52:25;;;;;;;;;;;18.30;99.90;;;;;;5003554;28;20036;-69
2021/08/16 04:54:52;;;;;;;;;;;18.30;99.90;;;;;;5006497;28;19962;-71
2021/08/16 04:57:27;;;;;;;;;;;18.30;99.90;;;;;;5009355;28;19996;-70
2021/08/16 04:59:54;;;;;;;;;;;18.30;99.90;;;;;;5012123;28;19962;-68
2021/08/16 05:02:20;;;;;;;;;;;18.30;99.90;;;;;;5015123;28;19965;-68
2021/08/16 05:04:53;;;;;;;;;;;18.30;99.90;;;;;;5009307;28;20016;-67
2021/08/16 05:07:19;;;;;;;;;;;18.30;99.90;;;;;;5008614;28;19962;-70
2021/08/16 05:09:47;;;;;;;;;;;18.40;99.90;;;;;;5010991;28;19957;-67
2021/08/16 05:12:14;;;;;;;;;;;18.40;99.90;;;;;;5012201;28;19958;-73
2021/08/16 05:14:41;;;;;;;;;;;18.40;99.90;;;;;;5004240;28;19962;-68
2021/08/16 05:17:08;;;;;;;;;;;18.40;99.90;;;;;;5006743;28;19969;-71
2021/08/16 05:19:37;;;;;;;;;;;18.40;99.90;;;;;;5008022;28;20031;-71
2021/08/16 05:22:05;;;;;;;;;;;18.30;99.90;;;;;;5005145;28;20367;-66
2021/08/16 05:24:32;;;;;;;;;;;18.30;99.90;;;;;;5005736;28;20486;-68
2021/08/16 05:27:00;;;;;;;;;;;18.20;99.90;;;;;;5009514;28;19961;-71
2021/08/16 05:29:27;;;;;;;;;;;18.20;99.90;;;;;;5004701;28;19962;-73
2021/08/16 05:31:53;;;;;;;;;;;18.20;99.90;;;;;;5009071;28;19962;-70
2021/08/16 05:34:20;;;;;;;;;;;18.30;99.90;;;;;;5008017;28;20028;-70
2021/08/16 05:36:46;;;;;;;;;;;18.30;99.90;;;;;;5011433;28;20083;-72
2021/08/16 05:39:13;;;;;;;;;;;18.30;99.90;;;;;;5011138;28;20317;-70
2021/08/16 05:41:40;;;;;;;;;;;18.30;99.90;;;;;;5014414;28;19966;-70
2021/08/16 05:44:08;;;;;;;;;;;18.40;99.90;;;;;;5010883;28;20016;-72
2021/08/16 05:46:35;;;;;;;11.30;3.15;;;18.40;99.90;;;;;;5009302;28;20795;-71
2021/08/16 05:49:02;;;;;;;10.75;2.60;;;18.40;99.90;;;;;;5011446;28;20208;-73
2021/08/16 05:51:28;;;;;;;;;;;18.50;99.90;;;;;;5010525;28;20258;-72
2021/08/16 05:53:55;;;;;;;;;;;18.50;99.90;;;;;;5003566;28;19965;-71
2021/08/16 05:56:22;;;;;;;;;;;18.50;99.90;;;;;;5009002;28;20012;-72
2021/08/16 05:58:48;;;;;;;;;;;18.50;99.90;;;;;;5011263;28;19963;-71
2021/08/16 06:01:16;;;;;;;;;;;18.50;99.90;;;;;;5009229;28;19990;-73
2021/08/16 06:03:43;;;;;;;;;;;18.50;99.90;;;;;;5009787;28;19994;-71
2021/08/16 06:06:09;;;;;;;;;;;18.50;99.90;;;;;;5010590;28;19959;-71
2021/08/16 06:08:36;;;;;;;;;;;18.50;99.90;;;;;;5010372;28;19956;-71
2021/08/16 06:11:03;;;;;;;;;;;18.50;99.90;;;;;;5011292;28;19967;-71
2021/08/16 06:13:30;;;;;;;;;;;18.50;99.90;;;;;;5005629;28;20046;-70
2021/08/16 06:15:58;;;;;;;;;;;18.50;99.90;;;;;;5007626;28;19995;-69
2021/08/16 06:18:26;;;;;;;;;;;18.50;99.90;;;;;;5009049;28;19975;-70
2021/08/16 06:20:54;;;;;;;;;;;18.50;99.90;;;;;;5007392;28;19963;-71
2021/08/16 06:23:20;;;;;;;;;;;18.50;99.90;;;;;;5004173;28;19958;-69
2021/08/16 06:25:47;;;;;;;;;;;18.50;99.90;;;;;;5010948;28;19959;-70
2021/08/16 06:28:14;;;;;;;;;;;18.50;99.90;;;;;;5005605;28;19964;-70
2021/08/16 06:30:40;;;;;;;;;;;18.50;99.90;;;;;;5009844;28;20235;-67
2021/08/16 06:33:07;;;;;;;;;;;18.50;99.90;;;;;;5005268;28;19990;-69
2021/08/16 06:35:36;;;;;;;;;;;18.40;99.90;;;;;;5010276;28;19963;-68
2021/08/16 06:38:09;;;;;;;;;;;18.40;99.90;;;;;;5007322;28;19971;-71
2021/08/16 06:40:36;;;;;;;;;;;18.40;99.90;;;;;;5004444;28;19959;-69
2021/08/16 06:43:03;;;;;;;;;;;18.40;99.90;;;;;;5007303;28;19970;-71
2021/08/16 06:45:31;;;;;;;;;;;18.40;99.90;;;;;;5012225;28;20013;-69
2021/08/16 06:47:58;;;;;;;;;;;18.40;99.90;;;;;;5007352;28;20003;-70
2021/08/16 06:50:25;;;;;;;;;;;18.40;99.90;;;;;;5000452;28;19960;-70
2021/08/16 06:52:53;;;;;;;;;;;18.30;99.90;;;;;;5012808;28;20505;-69
2021/08/16 06:55:19;;;;;;;;;;;18.30;99.90;;;;;;5000406;28;20432;-70
2021/08/16 06:57:46;;;;;;;;;;;18.40;99.90;;;;;;4998896;28;19959;-72
2021/08/16 07:00:13;;;;;;;;;;;18.40;99.90;;;;;;5005354;28;19963;-70
2021/08/16 07:02:40;;;;;;;;;;;18.30;99.90;;;;;;5003030;28;19982;-71
2021/08/16 07:05:07;;;;;;;;;;;18.40;99.90;;;;;;5002636;28;19963;-70
2021/08/16 07:07:34;;;;;;;;;;;18.40;99.60;;;;;;5001884;28;19968;-69
2021/08/16 07:10:02;;;;;;;;;;;18.40;99.40;;;;;;5007634;28;20006;-69
2021/08/16 07:12:28;;;;;;;;;;;18.30;99.10;;;;;;5003922;28;19959;-70
2021/08/16 07:14:55;;;;;;;;;;;18.30;98.80;;;;;;5006487;28;20424;-70
2021/08/16 07:17:22;;;;;;;;;;;18.30;98.70;;;;;;5006203;28;20030;-71
2021/08/16 07:19:49;;;;;;;;;;;18.30;98.60;;;;;;5007940;28;19987;-71
2021/08/16 07:22:16;;;;;;;;;;;18.30;98.50;;;;;;5001906;28;19960;-69
2021/08/16 07:24:43;;;;;;;;;;;18.40;98.60;;;;;;5005297;28;20054;-70
2021/08/16 07:27:11;;;;;;;;;;;18.40;98.60;;;;;;5003962;28;19960;-71
2021/08/16 07:29:38;;;;;;;;;;;18.50;98.60;;;;;;5007903;28;20033;-73
2021/08/16 07:32:05;;;;;;;;;;;18.60;98.30;;;;;;5010044;28;20011;-72
2021/08/16 07:34:33;;;;;;;;;;;18.60;97.90;;;;;;5005281;28;20000;-68
2021/08/16 07:37:00;;;;;;;;;;;18.60;97.70;;;;;;5011332;28;19993;-68
2021/08/16 07:39:26;;;;;;;;;;;18.60;97.50;;;;;;5004837;28;19955;-71
2021/08/16 07:41:54;;;;;;;;;;;18.70;97.30;;;;;;5005514;28;19960;-70
2021/08/16 07:44:22;;;;;;;;;;;18.70;97.00;;;;;;5010696;28;19959;-70
2021/08/16 07:46:48;;;;;;;;;;;18.70;96.70;;;;;;5009819;28;20014;-70
2021/08/16 07:49:15;;;;;;;;;;;18.80;96.60;;;;;;5006046;28;20049;-71
2021/08/16 07:51:42;;;;;;;;;;;18.80;96.30;;;;;;5011179;28;20012;-72
2021/08/16 07:54:08;;;;;;;;;;;18.80;96.10;;;;;;5011562;28;19993;-70
2021/08/16 07:56:35;;;;;;;;;;;18.80;96.00;;;;;;5006941;28;20497;-72
2021/08/16 07:59:02;;;;;;;;;;;18.80;96.00;;;;;;5007861;28;19997;-70
2021/08/16 08:01:30;;;;;;;;;;;18.80;95.90;;;;;;5008224;28;19966;-70
2021/08/16 08:03:56;;;;;;;;;;;18.70;95.90;;;;;;5005824;28;20288;-70
2021/08/16 08:06:24;;;;;;;;;;;18.70;96.10;;;;;;5005350;28;19965;-69
2021/08/16 08:08:51;;;;;;;;;;;18.70;96.00;;;;;;5011203;28;20002;-70
2021/08/16 08:11:17;;;;;;;;;;;18.70;96.10;;;;;;5007728;28;19966;-70
2021/08/16 08:13:44;;;;;;;;;;;18.70;96.10;;;;;;5008863;28;19963;-69
2021/08/16 08:16:11;;;;;;;;;;;18.70;96.20;;;;;;5006012;28;19966;-69
2021/08/16 08:18:39;;;;;;;;;;;18.70;96.10;;;;;;5010000;28;19995;-70
2021/08/16 08:21:05;;;;;;;;;;;18.70;96.00;;;;;;5005907;28;20336;-70
2021/08/16 08:23:32;;;;;;;;;;;18.70;95.80;;;;;;5009996;28;19959;-70
2021/08/16 08:25:58;;;;;;;;;;;18.70;95.70;;;;;;5010671;28;19999;-70
2021/08/16 08:28:25;;;;;;;;;;;18.80;95.60;;;;;;5007949;28;20049;-67
2021/08/16 08:30:52;;;;;;;;;;;18.90;95.30;;;;;;5010231;28;20013;-68
2021/08/16 08:33:18;;;;;;;;;;;19.00;94.90;;;;;;5010599;28;19958;-68
2021/08/16 08:35:46;;;;;;;;;;;19.00;94.50;;;;;;5010480;28;19962;-69
2021/08/16 08:38:13;;;;;;;;;;;19.00;94.30;;;;;;5012684;28;19956;-68
2021/08/16 08:40:40;;;;;;;;;;;19.00;93.90;;;;;;5007014;28;19995;-68
2021/08/16 08:43:08;;;;;;;;;;;19.10;93.90;;;;;;5007913;28;20038;-68
2021/08/16 08:45:35;;;;;;;;;;;19.20;94.00;;;;;;5012842;28;21161;-67
2021/08/16 08:48:02;;;;;;;11.82;4.22;;;19.40;93.90;;;;;;5008161;28;20409;-70
2021/08/16 08:50:28;;;;;;;16.85;4.05;;;19.50;94.10;;;;;;5005514;28;20241;-68
2021/08/16 08:52:59;;;;;;;10.68;3.85;;;19.90;94.40;;;;;;5006819;28;20094;-68
2021/08/16 08:55:26;;;;;;;13.93;3.92;;;20.20;94.60;;;;;;5009283;28;20262;-68
2021/08/16 08:57:53;;;;;;;12.02;4.07;;;20.60;94.40;;;;;;5007961;28;20299;-68
2021/08/16 09:00:20;;;;;;;10.75;3.95;;;21.10;93.80;;;;;;5006673;28;20224;-68
2021/08/16 09:02:56;;;;;;;8.80;3.47;;;21.50;92.20;;;;;;5007984;28;20228;-71
2021/08/16 09:05:23;;;;;;;11.07;3.00;;;21.80;90.80;;;;;;5005639;28;20210;-68
2021/08/16 09:07:50;;;;;;;11.05;3.08;;;22.10;90.00;;;;;;5006439;28;20228;-69
2021/08/16 09:10:18;;;;;;;10.82;3.30;;;22.30;87.50;;;;;;5007256;28;20204;-68
2021/08/16 09:12:45;;;;;;;;;;;22.30;85.90;;;;;;5008401;28;20069;-69
2021/08/16 09:15:17;;;;;;;8.02;3.40;;;22.30;85.10;;;;;;5006543;28;20203;-70
2021/08/16 09:17:44;;;;;;;10.23;3.97;;;22.50;84.30;;;;;;5009126;28;20252;-69
2021/08/16 09:20:19;;;;;;;10.10;3.90;;;22.60;83.10;;;;;;5007019;28;20608;-69
2021/08/16 09:22:48;;;;;;;;;;;22.50;81.70;;;;;;5010557;28;20006;-69
2021/08/16 09:25:17;;;;;;;;;;;22.10;82.20;;;;;;5010189;28;19968;-68
2021/08/16 09:27:46;;;;;;;;;;;21.70;83.60;;;;;;5010176;28;19961;-68
2021/08/16 09:30:13;;;;;;;;;;;21.50;84.60;;;;;;5008133;28;20014;-67
2021/08/16 09:32:43;;;;;;;;;;;21.20;83.90;;;;;;5008661;28;20333;-69
2021/08/16 09:35:10;;;;;;;;;;;20.90;83.90;;;;;;5009055;28;19926;-69
2021/08/16 09:37:38;;;;;;;;;;;20.80;83.90;;;;;;5010011;28;20115;-66
2021/08/16 09:40:06;;;;;;;;;;;20.70;83.60;;;;;;5007950;28;20735;-67
2021/08/16 09:42:47;;;;;;;;;;;20.70;83.50;;;;;;5007740;28;19931;-69
2021/08/16 09:45:27;;;;;;;8.80;3.70;;;20.70;83.40;;;;;;5004070;28;20119;-69
2021/08/16 09:47:58;;;;;;;;;;;20.70;83.90;;;;;;5008585;28;19965;-69
2021/08/16 09:50:35;;;;;;;13.93;3.75;;;20.60;84.80;;;;;;5003085;28;20393;-69
2021/08/16 09:53:06;;;;;;;9.60;3.47;;;20.50;85.70;;;;;;5006959;28;20246;-67
2021/08/16 09:55:34;;;;;;;9.40;3.20;;;20.40;87.10;;;;;;5007942;28;20983;-67
2021/08/16 09:58:04;;;;;;;12.02;3.80;;;20.20;88.50;;;;;;5003237;28;20219;-71
2021/08/16 10:00:32;;;;;;;12.30;2.90;;;20.10;89.80;;;;;;5009051;28;20226;-71
2021/08/16 10:03:01;;;;;;;9.23;3.00;;;19.90;90.40;;;;;;5007529;28;20641;-67
2021/08/16 10:05:28;;;;;;;11.20;3.30;;;19.90;90.80;;;;;;5008546;28;20266;-71
2021/08/16 10:07:56;;;;;;;14.70;3.53;;;19.90;91.00;;;;;;5004873;28;20224;-69
2021/08/16 10:10:24;;;;;;;15.75;4.03;;;19.90;91.10;;;;;;5007178;28;20212;-68
2021/08/16 10:12:50;;;;;;;9.73;3.33;;;19.90;91.00;;;;;;5007053;28;20292;-68
2021/08/16 10:15:19;;;;;;;13.05;3.38;;;20.00;91.00;;;;;;5003269;28;20615;-70
2021/08/16 10:17:46;;;;;;;8.57;3.05;;;20.10;90.80;;;;;;5003318;28;20232;-70
2021/08/16 10:20:16;;;;;;;7.60;2.50;;;20.10;90.70;;;;;;5008934;28;20216;-66
2021/08/16 10:22:42;;;;;;;13.63;3.25;;;20.00;91.00;;;;;;5007408;28;20224;-72
2021/08/16 10:25:14;;;;;;;8.95;3.22;;;19.90;91.50;;;;;;5005341;28;20259;-69
2021/08/16 10:27:41;;;;;;;8.82;2.70;;;19.70;91.90;;;;;;5005399;28;20204;-70
2021/08/16 10:30:09;;;;;;;;;;;19.50;92.10;;;;;;5006689;28;20476;-67
2021/08/16 10:32:37;;;;;;;;;;;19.50;92.50;;;;;;5008935;28;19962;-69
2021/08/16 10:35:09;;;;;;;;;;;19.30;92.40;;;;;;5002782;28;20023;-65
2021/08/16 10:37:37;;;;;;;;;;;19.20;92.70;;;;;;5006601;28;19959;-69
2021/08/16 10:40:13;;;;;;;;;;;19.10;92.80;;;;;;5004987;28;20254;-68
2021/08/16 10:42:40;;;;;;;;;;;19.20;93.20;;;;;;5010500;28;19964;-71
2021/08/16 10:45:07;;;;;;;;;;;19.20;93.20;;;;;;5006205;28;20095;-67
2021/08/16 10:47:37;;;;;;;16.98;4.28;;;19.30;93.50;;;;;;5006088;28;20238;-66
2021/08/16 10:50:05;;;;;;;;;;;19.40;93.80;;;;;;5006942;28;20228;-67
2021/08/16 10:52:32;;;;;;;;;;;19.40;94.00;;;;;;5007442;28;20771;-68
2021/08/16 10:55:07;;;;;;;;;;;19.40;93.80;;;;;;5007575;28;19922;-67
2021/08/16 10:57:35;;;;;;;;;;;19.40;93.50;;;;;;5003492;28;19925;-69
2021/08/16 11:00:01;;;;;;;;;;;19.40;93.40;;;;;;5007400;28;19928;-67
2021/08/16 11:02:28;;;;;;;;;;;19.50;93.50;;;;;;5008238;28;19926;-68
2021/08/16 11:04:56;;;;;;;;;;;19.50;93.40;;;;;;5010290;28;19925;-71
2021/08/16 11:07:23;;;;;;;;;;;19.60;93.00;;;;;;5006319;28;19982;-67
2021/08/16 11:09:55;;;;;;;;;;;19.70;92.80;;;;;;5007067;28;19991;-67
2021/08/16 11:12:31;;;;;;;11.52;3.08;;;19.80;92.60;;;;;;5009815;28;20965;-70
2021/08/16 11:14:59;;;;;;;18.75;3.30;;;19.90;92.10;;;;;;5008452;28;20238;-70
2021/08/16 11:17:27;;;;;;;12.20;3.13;;;20.00;91.50;;;;;;5005476;28;20213;-66
2021/08/16 11:19:57;;;;;;;12.35;2.70;;;20.10;90.90;;;;;;5006559;28;20215;-69
2021/08/16 11:22:25;;;;;;;;;;;20.10;90.30;;;;;;5006871;28;20367;-65
2021/08/16 11:24:52;;;;;;;;;;;20.20;89.40;;;;;;5005303;28;20010;-68
2021/08/16 11:27:21;;;;;;;;;;;20.20;88.50;;;;;;5005766;28;19996;-70
2021/08/16 11:29:56;;;;;;;;;;;20.20;87.10;;;;;;5003324;28;19955;-67
2021/08/16 11:32:22;;;;;;;;;;;20.20;86.20;;;;;;5007308;28;20002;-66
2021/08/16 11:34:51;;;;;;;;;;;20.20;85.70;;;;;;5004411;28;19952;-68
2021/08/16 11:37:18;;;;;;;;;;;20.20;84.80;;;;;;5002956;28;19990;-67
2021/08/16 11:39:47;;;;;;;;;;;20.30;83.10;;;;;;5005484;28;19986;-69
2021/08/16 11:42:14;;;;;;;;;;;20.30;81.90;;;;;;5005208;28;19999;-67
2021/08/16 11:44:41;;;;;;;;;;;20.30;81.00;;;;;;5006332;28;20049;-69
2021/08/16 11:47:07;;;;;;;;;;;20.30;80.50;;;;;;5007065;28;20002;-68
2021/08/16 11:49:35;;;;;;;;;;;20.30;79.70;;;;;;5005251;28;19991;-69
2021/08/16 11:52:02;;;;;;;12.82;3.08;;;20.20;78.80;;;;;;4999900;28;20190;-68
2021/08/16 11:54:31;;;;;;;15.13;3.15;;;20.20;78.30;;;;;;5004376;28;20204;-68
2021/08/16 11:57:02;;;;;;;13.23;2.80;;;20.30;77.70;;;;;;5001411;28;20307;-67
2021/08/16 11:59:29;;;;;;;;;;;20.40;76.80;;;;;;5004243;28;19966;-70
2021/08/16 12:01:57;;;;;;;;;;;20.40;76.10;;;;;;5005065;28;19961;-67
2021/08/16 12:04:24;;;;;;;;;;;20.50;74.80;;;;;;5009554;28;20037;-68
2021/08/16 12:06:52;;;;;;;;;;;20.50;74.10;;;;;;5008292;28;19959;-70
2021/08/16 12:09:19;;;;;;;;;;;20.50;73.90;;;;;;5000185;28;19987;-69
2021/08/16 12:11:57;;;;;;;;;;;20.60;74.00;;;;;;5006710;28;20050;-67
2021/08/16 12:14:28;;;;;;;;;;;20.60;73.60;;;;;;5002165;28;20087;-68
2021/08/16 12:16:55;;;;;;;14.10;3.47;;;20.70;73.30;;;;;;5007684;28;20067;-69
2021/08/16 12:19:23;;;;;;;13.27;3.22;;;20.80;72.60;;;;;;5001671;28;20224;-71
2021/08/16 12:22:00;;;;;;;;;;;21.00;72.10;;;;;;5006198;28;20110;-71
2021/08/16 12:24:27;;;;;;;;;;;21.20;71.40;;;;;;5006094;28;19998;-72
2021/08/16 12:26:59;;;;;;;15.10;3.00;;;21.40;70.70;;;;;;5009173;28;20230;-70
2021/08/16 12:29:28;;;;;;;14.70;3.08;;;21.50;69.20;;;;;;5011380;28;20279;-70
2021/08/16 12:31:55;;;;;;;10.32;3.17;;;21.60;68.90;;;;;;5008487;28;20723;-70
2021/08/16 12:34:33;;;;;;;15.52;3.33;;;21.60;67.90;;;;;;5007590;28;20204;-68
2021/08/16 12:37:00;;;;;;;9.75;3.28;;;21.60;67.60;;;;;;5013103;28;20215;-68
2021/08/16 12:39:33;;;;;;;14.88;3.20;;;21.50;67.20;;;;;;5009137;28;20216;-71
2021/08/16 12:42:09;;;;;;;9.77;3.30;;;21.30;67.20;;;;;;5011168;28;20205;-67
2021/08/16 12:44:38;;;;;;;11.82;3.08;;;21.20;67.20;;;;;;5010299;28;20517;-68
2021/08/16 12:47:07;;;;;;;11.05;3.17;;;21.10;66.80;;;;;;5007904;28;20688;-73
2021/08/16 12:49:35;;;;;;;12.50;2.97;;;21.10;66.30;;;;;;5005035;28;20210;-71
2021/08/16 12:52:03;;;;;;;14.07;2.95;;;21.20;66.20;;;;;;5010813;28;20211;-72
2021/08/16 12:54:30;;;;;;;14.75;2.90;;;21.50;66.20;;;;;;5012157;28;20666;-71
2021/08/16 12:56:56;;;;;;;12.07;2.85;;;21.80;65.50;;;;;;5004181;28;20233;-70
2021/08/16 12:59:23;;;;;;;14.80;2.90;;;22.00;64.70;;;;;;5009230;28;20284;-69
2021/08/16 13:01:56;;;;;;;8.95;2.90;;;22.20;63.80;;;;;;5009880;28;20744;-68
2021/08/16 13:04:23;;;;;;;14.20;3.20;;;22.30;63.10;;;;;;5009728;28;20204;-68
2021/08/16 13:06:50;;;;;;;13.68;3.20;;;22.40;63.80;;;;;;5007056;28;20260;-69
2021/08/16 13:09:17;;;;;;;12.77;2.90;;;22.40;62.40;;;;;;5004839;28;20208;-71
2021/08/16 13:11:43;;;;;;;16.50;2.63;;;22.40;62.10;;;;;;5008448;28;20200;-71
2021/08/16 13:14:10;;;;;;;12.27;2.97;;;22.50;62.10;;;;;;5007657;28;20240;-69
2021/08/16 13:16:37;;;;;;;15.68;2.90;;;22.50;61.40;;;;;;5005229;28;20258;-69
2021/08/16 13:19:05;;;;;;;15.38;2.63;;;22.50;60.70;;;;;;5008533;28;20299;-71
2021/08/16 13:21:32;;;;;;;15.43;2.95;;;22.60;60.00;;;;;;5006982;28;20229;-70
2021/08/16 13:23:59;;;;;;;11.00;2.47;;;22.50;59.50;;;;;;5009681;28;20302;-69
2021/08/16 13:26:26;;;;;;;13.60;3.00;;;22.50;59.50;;;;;;5003293;28;20662;-69
2021/08/16 13:28:53;;;;;;;15.80;3.85;;;22.40;59.50;;;;;;5007676;28;20196;-70
2021/08/16 13:31:20;;;;;;;11.90;3.35;;;22.30;59.70;;;;;;5003809;28;20746;-69
2021/08/16 13:33:47;;;;;;;17.40;2.97;;;22.10;60.20;;;;;;5007108;28;20205;-70
2021/08/16 13:36:15;;;;;;;8.63;2.58;;;22.00;60.60;;;;;;5005983;28;20205;-71
2021/08/16 13:38:42;;;;;;;13.15;2.42;;;21.80;60.50;;;;;;5003925;28;20278;-66
2021/08/16 13:41:09;;;;;;;11.55;2.35;;;21.60;60.70;;;;;;5009004;28;20209;-69
2021/08/16 13:43:36;;;;;;;12.05;2.60;;;21.40;60.40;;;;;;5006574;28;20262;-72
2021/08/16 13:46:03;;;;;;;13.57;2.30;;;21.30;59.80;;;;;;5005526;28;20275;-71
2021/08/16 13:48:29;;;;;;;9.52;2.47;;;21.30;60.30;;;;;;5010664;28;20204;-70